Time;durP1;ratioP1;P1;durP2;ratioP2;P2;SDS_P1;SDS_P2;PMS_P1;PMS_P2;Temp;Humidity;BMP_temperature;BMP_pressure;BME280_temperature;BME280_humidity;BME280_pressure;Samples;Min_cycle;Max_cycle;Signal;HPM_P1;HPM_P2
2022/05/21 00:01:20;;;;;;;8.15;3.10;;;;;;;15.50;49.32;95097.78;4159889;28;20079;-54
2022/05/21 00:03:22;;;;;;;7.03;2.97;;;;;;;15.54;49.09;95099.06;4159093;28;20049;-52
2022/05/21 00:05:25;;;;;;;6.47;3.67;;;;;;;15.69;48.63;95093.00;4159897;28;20202;-53
2022/05/21 00:07:28;;;;;;;7.68;2.63;;;;;;;15.84;48.33;95099.16;4158641;28;20103;-53
2022/05/21 00:09:30;;;;;;;9.02;4.35;;;;;;;15.99;47.86;95098.34;4159720;28;20568;-53
2022/05/21 00:11:32;;;;;;;3.45;2.13;;;;;;;16.13;47.73;95089.56;4159683;28;20427;-54
2022/05/21 00:13:34;;;;;;;5.13;2.25;;;;;;;16.24;46.81;95086.47;4159899;28;20451;-54
2022/05/21 00:15:54;;;;;;;5.03;2.25;;;;;;;16.32;46.35;95089.00;4159838;28;20100;-53
2022/05/21 00:17:56;;;;;;;5.75;2.25;;;;;;;16.37;46.08;95085.81;4159304;28;20085;-54
2022/05/21 00:19:58;;;;;;;5.63;2.67;;;;;;;16.42;46.02;95090.53;4159622;28;20138;-54
2022/05/21 00:21:59;;;;;;;6.53;2.75;;;;;;;16.44;46.38;95091.19;4158159;28;20147;-52
2022/05/21 00:24:01;;;;;;;6.43;2.65;;;;;;;16.30;46.63;95096.28;4174061;28;20048;-55
2022/05/21 00:26:08;;;;;;;5.85;2.75;;;;;;;16.17;47.12;95090.84;4176033;28;20110;-54
2022/05/21 00:28:10;;;;;;;5.20;2.85;;;;;;;16.07;47.18;95087.69;4176205;28;20468;-52
2022/05/21 00:30:13;;;;;;;8.18;2.33;;;;;;;15.46;47.36;95085.94;4175891;28;20614;-53
2022/05/21 00:32:14;;;;;;;7.23;2.43;;;;;;;15.35;48.30;95081.09;4175501;28;20532;-52
2022/05/21 00:34:16;;;;;;;5.30;2.75;;;;;;;15.42;48.28;95078.56;4176017;28;20332;-53
2022/05/21 00:36:18;;;;;;;5.28;2.35;;;;;;;15.58;47.85;95065.22;4168584;28;20053;-51
2022/05/21 00:38:20;;;;;;;6.38;2.63;;;;;;;15.71;47.07;95059.31;4173618;28;20480;-51
2022/05/21 00:40:22;;;;;;;4.22;2.30;;;;;;;15.83;46.50;95059.69;4175844;28;20555;-55
2022/05/21 00:42:24;;;;;;;3.65;2.28;;;;;;;15.92;46.36;95064.72;4175777;28;20096;-53
2022/05/21 00:44:25;;;;;;;3.38;2.08;;;;;;;16.01;46.20;95059.34;4175937;28;20118;-54
2022/05/21 00:46:34;;;;;;;6.53;2.22;;;;;;;16.02;46.34;95058.31;4175935;28;20440;-52
2022/05/21 00:48:37;;;;;;;4.15;2.38;;;;;;;16.00;46.06;95053.22;4175483;28;20044;-52
2022/05/21 00:50:38;;;;;;;4.95;2.60;;;;;;;15.96;46.69;95055.41;4175678;28;20382;-51
2022/05/21 00:52:41;;;;;;;9.02;2.42;;;;;;;15.89;47.11;95053.69;4168166;28;20476;-54
2022/05/21 00:54:57;;;;;;;7.57;2.85;;;;;;;15.87;47.06;95045.94;4173663;28;20061;-52
2022/05/21 00:57:07;;;;;;;5.93;2.33;;;;;;;15.87;46.41;95048.56;4163442;28;20073;-49
2022/05/21 01:01:33;;;;;;;6.68;2.28;;;;;;;15.81;46.20;95045.84;4174382;28;20090;-55
2022/05/21 01:03:35;;;;;;;3.35;2.03;;;;;;;15.86;46.55;95041.66;4173874;28;20064;-53
2022/05/21 01:05:37;;;;;;;4.53;2.00;;;;;;;15.90;46.44;95040.28;4175544;28;20073;-55
2022/05/21 01:07:40;;;;;;;9.27;2.65;;;;;;;15.88;46.53;95044.13;4174375;28;20385;-51
2022/05/21 01:09:50;;;;;;;5.47;2.50;;;;;;;15.77;47.12;95042.78;4175892;28;20055;-52
2022/05/21 01:11:52;;;;;;;6.88;2.38;;;;;;;15.64;47.50;95038.09;4172601;28;20045;-51
2022/05/21 01:13:54;;;;;;;5.05;1.98;;;;;;;15.52;46.16;95043.00;4169899;28;20474;-50
2022/05/21 01:15:56;;;;;;;5.57;2.40;;;;;;;15.46;47.30;95041.06;4166064;28;20143;-54
2022/05/21 01:17:58;;;;;;;9.32;2.55;;;;;;;15.39;48.28;95047.25;4175481;28;20067;-54
2022/05/21 01:20:16;;;;;;;7.75;2.40;;;;;;;15.36;48.57;95045.81;4175716;28;20476;-52
2022/05/21 01:22:17;;;;;;;6.15;2.63;;;;;;;15.36;48.08;95041.34;4174155;28;20303;-52
2022/05/21 01:24:19;;;;;;;5.20;2.53;;;;;;;15.40;48.85;95031.25;4175358;28;20122;-54
2022/05/21 01:26:21;;;;;;;5.47;2.40;;;;;;;15.41;49.53;95038.16;4175696;28;20061;-52
2022/05/21 01:28:26;;;;;;;4.75;2.88;;;;;;;15.42;49.89;95052.16;4172290;28;20122;-54
2022/05/21 01:30:32;;;;;;;5.57;2.38;;;;;;;15.36;49.99;95056.38;4175093;28;20061;-53
2022/05/21 01:32:34;;;;;;;10.15;2.65;;;;;;;15.20;47.83;95048.59;4172440;28;20142;-52
2022/05/21 01:34:37;;;;;;;6.88;2.03;;;;;;;15.13;47.60;95040.56;4172552;28;20059;-53
2022/05/21 01:36:39;;;;;;;8.15;2.60;;;;;;;15.00;48.28;95043.81;4178735;28;20405;-53
2022/05/21 01:38:42;;;;;;;6.10;2.58;;;;;;;15.04;49.72;95050.38;4170744;28;20050;-53
2022/05/21 01:40:44;;;;;;;4.50;2.47;;;;;;;15.05;50.07;95043.28;4163688;28;20073;-55
2022/05/21 01:44:37;;;;;;;6.88;3.03;;;;;;;15.06;50.30;95045.75;4176839;28;20049;-56
2022/05/21 01:45:10;;;;;;;4.15;2.22;;;;;;;15.00;50.54;95043.81;4178282;28;20051;-55
2022/05/21 01:47:14;;;;;;;10.10;2.65;;;;;;;14.94;50.73;95052.44;4178186;28;20134;-54
2022/05/21 01:49:15;;;;;;;7.07;2.33;;;;;;;14.83;51.19;95051.03;4178029;28;20049;-50
2022/05/21 01:51:18;;;;;;;4.75;2.83;;;;;;;14.76;51.40;95044.03;4178611;28;20055;-54
2022/05/21 01:53:21;;;;;;;9.93;2.65;;;;;;;14.81;51.41;95037.19;4176912;28;20142;-51
2022/05/21 01:55:23;;;;;;;;;;;;;;;14.89;51.18;95042.41;4178976;28;20062;-50
2022/05/21 01:57:25;;;;;;;5.68;2.80;;;;;;;14.97;51.10;95038.91;4175674;28;19920;-52
2022/05/21 01:59:27;;;;;;;11.02;5.53;;;;;;;14.99;51.35;95042.16;4165669;28;20103;-51
2022/05/21 02:01:29;;;;;;;14.68;4.82;;;;;;;15.02;51.89;95039.19;4162016;28;20045;-56
2022/05/21 02:03:30;;;;;;;9.00;3.63;;;;;;;15.07;51.81;95036.81;4161186;28;20144;-55
2022/05/21 02:05:32;;;;;;;7.43;3.70;;;;;;;15.14;51.66;95036.91;4161777;28;20049;-53
2022/05/21 02:07:34;;;;;;;7.82;4.30;;;;;;;15.15;51.65;95025.38;4170707;28;20044;-53
2022/05/21 02:09:36;;;;;;;5.05;3.00;;;;;;;15.15;51.14;95025.38;4177957;28;20087;-52
2022/05/21 02:11:38;;;;;;;5.88;2.60;;;;;;;15.15;51.16;95018.28;4173188;28;20147;-56
2022/05/21 02:13:40;;;;;;;7.18;2.75;;;;;;;15.09;51.40;95016.34;4159638;28;20111;-53
2022/05/21 02:15:42;;;;;;;5.63;2.78;;;;;;;15.09;50.94;95015.53;4170283;28;20190;-49
2022/05/21 02:17:44;;;;;;;8.40;2.60;;;;;;;15.08;51.00;95001.53;4177662;28;20057;-55
2022/05/21 02:19:46;;;;;;;4.55;2.38;;;;;;;15.08;50.51;95000.72;4178035;28;20053;-51
2022/05/21 02:21:47;;;;;;;7.10;3.33;;;;;;;15.06;51.36;95000.88;4178021;28;20114;-51
2022/05/21 02:23:49;;;;;;;5.90;2.72;;;;;;;15.02;51.56;95002.25;4176317;28;20045;-51
2022/05/21 02:25:51;;;;;;;6.10;2.67;;;;;;;14.97;51.25;95006.41;4177861;28;20562;-51
2022/05/21 02:27:53;;;;;;;8.45;2.80;;;;;;;14.88;51.26;95001.19;4177751;28;20052;-49
2022/05/21 02:29:54;;;;;;;7.25;3.08;;;;;;;14.72;51.70;95007.44;4177450;28;20049;-49
2022/05/21 02:31:56;;;;;;;3.53;2.13;;;;;;;14.65;50.97;95009.16;4177625;28;20448;-49
2022/05/21 02:33:58;;;;;;;5.72;2.20;;;;;;;14.57;50.37;95006.56;4177220;28;20061;-53
2022/05/21 02:36:00;;;;;;;7.93;2.40;;;;;;;14.49;50.68;95010.03;4177673;28;20053;-52
2022/05/21 02:40:23;;;;;;;7.40;2.97;;;;;;;13.68;53.52;95006.88;4162061;28;20552;-56
2022/05/21 02:42:43;;;;;;;12.52;3.00;;;;;;;13.77;53.18;95001.56;4177258;28;20049;-55
2022/05/21 02:44:45;;;;;;;8.98;3.30;;;;;;;13.92;53.49;95000.66;4176510;28;20053;-52
2022/05/21 02:46:47;;;;;;;5.63;2.38;;;;;;;14.06;52.58;95000.94;4177254;28;20061;-50
2022/05/21 02:48:49;;;;;;;7.60;2.33;;;;;;;14.22;51.62;95005.28;4177166;28;20378;-52
2022/05/21 02:50:50;;;;;;;8.32;2.58;;;;;;;14.32;51.51;95000.59;4177499;28;20072;-55
2022/05/21 02:52:52;;;;;;;3.65;2.00;;;;;;;14.41;50.91;95009.28;4175783;28;20464;-54
2022/05/21 02:54:54;;;;;;;4.15;1.92;;;;;;;14.43;49.41;95009.91;4177191;28;20060;-54
2022/05/21 02:56:55;;;;;;;5.60;2.33;;;;;;;14.49;49.20;95011.88;4177288;28;20123;-52
2022/05/21 02:58:57;;;;;;;17.05;2.60;;;;;;;14.53;49.94;95013.16;4166981;28;20400;-49
2022/05/21 03:00:59;;;;;;;3.67;1.92;;;;;;;14.42;49.42;95008.28;4171987;28;20053;-49
2022/05/21 03:03:00;;;;;;;5.75;1.95;;;;;;;14.16;49.25;95021.78;4177003;28;20048;-51
2022/05/21 03:05:04;;;;;;;5.75;2.65;;;;;;;13.87;49.51;95028.50;4177054;28;20150;-51
2022/05/21 03:07:05;;;;;;;3.33;1.95;;;;;;;13.30;49.58;95035.59;4175627;28;20053;-51
2022/05/21 03:11:27;;;;;;;4.47;1.85;;;;;;;12.79;52.79;95040.19;4173709;28;20107;-53
2022/05/21 03:13:32;;;;;;;5.30;2.40;;;;;;;12.55;54.09;95037.56;4160281;28;20053;-54
2022/05/21 03:15:38;;;;;;;13.90;2.60;;;;;;;12.63;54.31;95038.41;4170031;28;20064;-53
2022/05/21 03:17:40;;;;;;;7.20;2.17;;;;;;;12.91;53.50;95033.63;4176650;28;20057;-52
2022/05/21 03:19:41;;;;;;;5.72;2.00;;;;;;;13.20;53.05;95032.28;4177002;28;20056;-49
2022/05/21 03:21:43;;;;;;;6.97;1.85;;;;;;;13.48;52.16;95035.38;4176828;28;20362;-54
2022/05/21 03:23:45;;;;;;;4.47;2.40;;;;;;;13.70;51.60;95019.84;4175388;28;20479;-51
2022/05/21 03:25:47;;;;;;;7.90;2.15;;;;;;;13.86;51.34;95019.78;4175530;28;20623;-51
2022/05/21 03:27:50;;;;;;;9.18;3.03;;;;;;;14.00;50.86;95020.03;4176575;28;20052;-52
2022/05/21 03:29:51;;;;;;;8.90;3.50;;;;;;;14.10;50.98;95018.03;4176720;28;20053;-49
2022/05/21 03:31:54;;;;;;;7.53;4.78;;;;;;;14.21;50.92;95015.00;4176858;28;20293;-50
2022/05/21 03:33:56;;;;;;;7.82;4.22;;;;;;;14.33;50.42;95013.63;4176354;28;20132;-50
2022/05/21 03:35:57;;;;;;;6.93;4.10;;;;;;;14.41;49.92;95022.44;4162785;28;20118;-53
2022/05/21 03:38:00;;;;;;;10.38;5.03;;;;;;;14.48;50.07;95016.31;4159040;28;20053;-53
2022/05/21 03:40:04;;;;;;;8.90;4.72;;;;;;;14.57;49.97;95013.66;4176863;28;20061;-54
2022/05/21 03:42:06;;;;;;;14.65;5.20;;;;;;;14.59;50.07;95011.66;4176603;28;20053;-50
2022/05/21 03:44:09;;;;;;;11.00;5.63;;;;;;;14.63;49.99;95010.31;4176270;28;20065;-50
2022/05/21 03:46:10;;;;;;;14.98;6.78;;;;;;;14.66;49.96;95010.78;4160022;28;20053;-54
2022/05/21 03:48:14;;;;;;;15.80;7.70;;;;;;;14.67;50.14;95020.34;4159600;28;20152;-55
2022/05/21 03:50:20;;;;;;;12.02;6.90;;;;;;;14.70;50.22;95027.06;4159635;28;20080;-48
2022/05/21 03:52:21;;;;;;;28.13;7.43;;;;;;;14.67;50.54;95022.97;4158160;28;20707;-50
2022/05/21 03:54:23;;;;;;;15.80;9.40;;;;;;;14.60;50.87;95031.75;4159687;28;20062;-55
2022/05/21 03:56:25;;;;;;;19.92;9.63;;;;;;;14.56;51.12;95033.91;4159313;28;20053;-53
2022/05/21 03:58:27;;;;;;;19.30;10.85;;;;;;;14.44;52.00;95027.38;4159567;28;20114;-53
2022/05/21 04:00:29;;;;;;;21.67;11.13;;;;;;;14.37;52.12;95029.91;4160641;28;20133;-53
2022/05/21 04:02:32;;;;;;;19.95;9.77;;;;;;;14.34;52.40;95038.97;4159095;28;20104;-52
2022/05/21 04:04:36;;;;;;;16.17;9.48;;;;;;;14.03;53.69;95044.25;4159335;28;20133;-51
2022/05/21 04:06:37;;;;;;;15.55;8.55;;;;;;;13.80;55.11;95059.97;4160137;28;20123;-52
2022/05/21 04:08:39;;;;;;;12.73;7.55;;;;;;;13.67;55.27;95054.41;4165210;28;20056;-51
2022/05/21 04:10:41;;;;;;;12.70;7.57;;;;;;;13.58;55.73;95060.69;4175939;28;20090;-54
2022/05/21 04:12:43;;;;;;;10.27;6.82;;;;;;;13.69;55.24;95050.63;4162340;28;20049;-52
2022/05/21 04:14:45;;;;;;;14.20;8.52;;;;;;;13.90;55.17;95049.25;4162721;28;20672;-52
2022/05/21 04:16:46;;;;;;;11.75;7.15;;;;;;;14.14;54.91;95057.03;4176377;28;20056;-52
2022/05/21 04:18:48;;;;;;;13.77;6.38;;;;;;;14.41;54.11;95051.44;4175895;28;20134;-54
2022/05/21 04:20:50;;;;;;;8.38;5.65;;;;;;;14.61;53.21;95057.94;4176162;28;20068;-53
2022/05/21 04:22:51;;;;;;;13.27;5.10;;;;;;;14.80;52.71;95058.47;4174485;28;20049;-53
2022/05/21 04:24:53;;;;;;;13.15;5.38;;;;;;;15.00;52.68;95053.56;4175806;28;20348;-53
2022/05/21 04:26:55;;;;;;;10.10;5.53;;;;;;;15.19;52.06;95044.31;4174465;28;20053;-49
2022/05/21 04:28:58;;;;;;;11.63;5.68;;;;;;;15.41;51.26;95054.00;4175776;28;20079;-49
2022/05/21 04:31:00;;;;;;;16.20;5.93;;;;;;;15.60;50.95;95051.84;4175959;28;20052;-52
2022/05/21 04:33:01;;;;;;;11.13;5.68;;;;;;;15.75;50.58;95045.59;4175508;28;20199;-52
2022/05/21 04:35:04;;;;;;;9.82;5.53;;;;;;;15.71;50.07;95049.59;4176036;28;20064;-50
2022/05/21 04:37:06;;;;;;;11.80;5.40;;;;;;;15.64;50.14;95047.81;4174085;28;20053;-54
2022/05/21 04:39:08;;;;;;;13.20;5.18;;;;;;;15.65;49.82;95039.72;4165622;28;20456;-54
2022/05/21 04:41:10;;;;;;;8.85;5.07;;;;;;;15.70;49.98;95042.66;4159534;28;20100;-52
2022/05/21 04:43:12;;;;;;;12.73;5.55;;;;;;;15.79;49.90;95040.75;4158769;28;20049;-51
2022/05/21 04:45:15;;;;;;;8.88;4.57;;;;;;;15.84;50.35;95042.84;4166607;28;20124;-49
2022/05/21 04:47:17;;;;;;;10.88;4.95;;;;;;;15.90;50.12;95044.78;4175432;28;20056;-50
2022/05/21 04:49:18;;;;;;;14.32;5.22;;;;;;;15.97;49.67;95040.38;4175396;28;20571;-52
2022/05/21 04:51:20;;;;;;;13.18;4.50;;;;;;;16.02;49.80;95045.91;4175903;28;20060;-51
2022/05/21 04:53:22;;;;;;;12.07;3.97;;;;;;;16.08;49.34;95045.19;4173639;28;20381;-52
2022/05/21 04:55:23;;;;;;;6.68;3.90;;;;;;;16.13;49.28;95048.13;4175703;28;20048;-52
2022/05/21 04:57:25;;;;;;;8.60;4.30;;;;;;;16.20;49.59;95056.13;4175569;28;20110;-52
2022/05/21 04:59:27;;;;;;;11.80;4.60;;;;;;;16.23;49.47;95050.44;4175628;28;20060;-50
2022/05/21 05:01:30;;;;;;;14.68;3.53;;;;;;;16.31;48.97;95054.81;4165204;28;20068;-51
2022/05/21 05:03:32;;;;;;;9.82;3.55;;;;;;;16.37;48.56;95049.59;4158579;28;20130;-53
2022/05/21 05:05:33;;;;;;;7.25;3.70;;;;;;;16.37;48.90;95065.47;4159475;28;20049;-48
2022/05/21 05:07:37;;;;;;;16.77;4.15;;;;;;;16.44;48.45;95054.97;4158511;28;20053;-53
2022/05/21 05:09:41;;;;;;;10.75;3.58;;;;;;;16.55;48.44;95058.94;4177730;28;20099;-52
2022/05/21 05:11:43;;;;;;;10.60;4.30;;;;;;;16.62;48.06;95057.19;4173555;28;20091;-58
2022/05/21 05:13:44;;;;;;;8.02;3.38;;;;;;;16.69;47.81;95058.09;4162397;28;20075;-55
2022/05/21 05:16:05;;;;;;;10.00;3.63;;;;;;;16.74;47.82;95053.06;4173983;28;20048;-54
2022/05/21 05:18:09;;;;;;;8.48;3.85;;;;;;;16.83;47.56;95063.53;4177042;28;20057;-53
2022/05/21 05:20:11;;;;;;;8.93;3.65;;;;;;;16.94;47.12;95060.38;4178381;28;20424;-50
2022/05/21 05:22:13;;;;;;;9.02;3.33;;;;;;;16.98;46.60;95053.72;4177131;28;20575;-51
2022/05/21 05:24:15;;;;;;;7.15;3.67;;;;;;;17.03;46.13;95050.50;4178491;28;20116;-55
2022/05/21 05:26:17;;;;;;;10.32;3.95;;;;;;;17.06;46.01;95055.41;4178652;28;20110;-53
2022/05/21 05:28:23;;;;;;;10.70;3.97;;;;;;;17.12;45.75;95055.47;4176685;28;20460;-51
2022/05/21 05:30:25;;;;;;;7.93;3.85;;;;;;;17.08;46.11;95050.72;4162685;28;20079;-54
2022/05/21 05:32:27;;;;;;;7.43;4.03;;;;;;;17.14;46.25;95050.81;4161860;28;20135;-53
2022/05/21 05:34:29;;;;;;;9.23;4.15;;;;;;;17.12;46.49;95049.34;4162270;28;20053;-54
2022/05/21 05:36:30;;;;;;;16.60;4.03;;;;;;;17.04;46.39;95045.00;4161890;28;20080;-54
2022/05/21 05:38:32;;;;;;;7.63;3.90;;;;;;;16.98;46.31;95045.78;4160150;28;20060;-54
2022/05/21 05:40:35;;;;;;;7.38;3.72;;;;;;;16.88;46.83;95042.63;4161863;28;20493;-55
2022/05/21 05:42:37;;;;;;;11.85;4.35;;;;;;;16.87;47.06;95038.34;4161980;28;20119;-56
2022/05/21 05:44:40;;;;;;;7.25;3.55;;;;;;;16.99;47.12;95036.81;4165705;28;20103;-54
2022/05/21 05:46:41;;;;;;;10.30;4.18;;;;;;;17.12;46.83;95036.09;4178280;28;20478;-55
2022/05/21 05:48:43;;;;;;;11.35;4.45;;;;;;;17.00;46.89;95033.16;4178061;28;20049;-56
2022/05/21 05:50:45;;;;;;;6.10;3.53;;;;;;;16.86;47.30;95031.41;4178136;28;20518;-54
2022/05/21 05:52:47;;;;;;;9.10;3.90;;;;;;;16.85;47.05;95032.44;4176292;28;20106;-51
2022/05/21 05:54:49;;;;;;;17.40;4.32;;;;;;;16.84;46.63;95028.94;4178294;28;20049;-52
2022/05/21 05:56:50;;;;;;;10.10;4.28;;;;;;;16.87;46.78;95028.56;4177852;28;20052;-53
2022/05/21 06:01:13;;;;;;;10.88;4.13;;;;;;;16.99;46.36;95016.47;4172820;28;20045;-53
2022/05/21 06:03:15;;;;;;;10.52;4.32;;;;;;;17.00;46.15;95014.66;4162226;28;20261;-53
2022/05/21 06:05:19;;;;;;;11.45;4.63;;;;;;;17.15;46.31;95019.84;4161765;28;20056;-58
2022/05/21 06:07:21;;;;;;;9.95;4.32;;;;;;;17.29;46.12;95013.63;4158575;28;20510;-54
2022/05/21 06:09:23;;;;;;;10.27;4.05;;;;;;;17.44;45.65;95010.88;4173338;28;20060;-53
2022/05/21 06:11:26;;;;;;;9.77;3.95;;;;;;;17.52;45.27;95007.28;4175126;28;20139;-54
2022/05/21 06:13:27;;;;;;;10.10;5.32;;;;;;;17.24;46.27;95008.09;4161240;28;20088;-56
2022/05/21 06:15:29;;;;;;;10.85;4.60;;;;;;;17.22;45.70;94999.53;4170480;28;20132;-52
2022/05/21 06:17:31;;;;;;;12.25;4.35;;;;;;;17.33;45.80;95003.47;4177521;28;20053;-54
2022/05/21 06:19:33;;;;;;;9.18;4.80;;;;;;;17.38;45.40;94999.25;4176246;28;20179;-51
2022/05/21 06:21:35;;;;;;;11.27;4.65;;;;;;;17.50;45.17;95002.16;4177293;28;20053;-51
2022/05/21 06:23:37;;;;;;;12.32;4.50;;;;;;;17.68;45.00;95000.84;4175597;28;20048;-54
2022/05/21 06:25:40;;;;;;;9.25;3.88;;;;;;;17.62;44.71;94999.81;4177520;28;20740;-55
2022/05/21 06:27:41;;;;;;;11.02;4.28;;;;;;;17.67;45.12;94994.72;4177407;28;20470;-56
2022/05/21 06:29:43;;;;;;;7.00;4.05;;;;;;;17.90;44.92;94989.16;4177412;28;20110;-55
2022/05/21 06:31:45;;;;;;;10.15;4.10;;;;;;;18.13;44.23;94980.91;4177987;28;20467;-51
2022/05/21 06:33:46;;;;;;;12.77;3.88;;;;;;;18.21;43.13;94980.72;4177317;28;20041;-56
2022/05/21 06:35:50;;;;;;;7.65;3.40;;;;;;;18.09;42.78;94979.66;4177260;28;20103;-52
2022/05/21 06:37:52;;;;;;;6.32;3.40;;;;;;;18.18;43.17;94973.16;4176430;28;20053;-52
2022/05/21 06:39:54;;;;;;;7.55;3.53;;;;;;;18.34;42.66;94971.97;4166064;28;20056;-54
2022/05/21 06:41:56;;;;;;;8.57;3.80;;;;;;;18.27;42.29;94965.84;4171454;28;20125;-54
2022/05/21 06:43:58;;;;;;;10.93;3.60;;;;;;;18.13;43.09;94975.59;4177682;28;20095;-52
2022/05/21 06:46:00;;;;;;;13.15;3.88;;;;;;;18.26;43.05;94966.03;4177375;28;20080;-53
2022/05/21 06:48:04;;;;;;;6.20;3.10;;;;;;;18.42;43.21;94957.72;4177427;28;20117;-54
2022/05/21 06:50:07;;;;;;;10.27;3.30;;;;;;;18.57;43.25;94961.00;4177251;28;20060;-56
2022/05/21 06:52:09;;;;;;;9.07;3.30;;;;;;;18.74;42.53;94960.63;4176202;28;20141;-54
2022/05/21 06:54:10;;;;;;;6.03;3.08;;;;;;;18.86;41.71;94952.88;4176168;28;20294;-56
2022/05/21 06:56:14;;;;;;;6.47;3.70;;;;;;;18.93;41.54;94956.34;4177554;28;20056;-54
2022/05/21 06:58:16;;;;;;;6.88;3.83;;;;;;;18.74;41.64;94948.16;4177453;28;20056;-56
2022/05/21 07:00:21;;;;;;;11.20;3.72;;;;;;;18.54;41.58;94949.97;4167247;28;20053;-53
2022/05/21 07:02:24;;;;;;;10.10;3.20;;;;;;;18.61;41.53;94948.16;4167531;28;20061;-55
2022/05/21 07:09:11;;;;;;;12.32;3.10;;;;;;;18.95;40.29;94935.72;4161010;28;20152;-53
2022/05/21 07:11:13;;;;;;;10.18;3.67;;;;;;;19.13;40.51;94930.63;4160915;28;20061;-52
2022/05/21 07:13:16;;;;;;;9.77;3.72;;;;;;;19.05;40.09;94925.50;4160504;28;20068;-54
2022/05/21 07:15:18;;;;;;;11.88;3.90;;;;;;;19.09;40.39;94925.94;4168614;28;20079;-53
2022/05/21 07:17:19;;;;;;;9.13;3.50;;;;;;;19.27;40.18;94925.28;4177092;28;20057;-51
2022/05/21 07:19:21;;;;;;;9.35;3.33;;;;;;;19.39;39.87;94918.31;4174394;28;20065;-51
2022/05/21 07:21:23;;;;;;;10.45;3.78;;;;;;;19.52;40.23;94915.63;4161798;28;20073;-53
2022/05/21 07:23:26;;;;;;;10.90;4.22;;;;;;;19.78;39.41;94921.91;4159144;28;20041;-54
2022/05/21 07:25:30;;;;;;;8.77;3.63;;;;;;;19.99;39.60;94916.28;4160473;28;20079;-53
2022/05/21 07:27:32;;;;;;;7.28;3.30;;;;;;;20.20;39.44;94917.81;4160388;28;20103;-53
2022/05/21 07:29:37;;;;;;;11.93;3.67;;;;;;;20.27;39.67;94915.13;4160342;28;20060;-53
2022/05/21 07:31:38;;;;;;;8.95;3.40;;;;;;;19.95;38.92;94909.75;4160208;28;20143;-53
2022/05/21 07:33:40;;;;;;;12.57;3.75;;;;;;;20.06;39.54;94905.59;4167783;28;20048;-53
2022/05/21 07:35:43;;;;;;;11.90;3.58;;;;;;;20.03;39.48;94906.03;4176694;28;20148;-54
2022/05/21 07:37:45;;;;;;;6.80;3.60;;;;;;;20.15;38.79;94904.31;4175326;28;20488;-51
2022/05/21 07:39:46;;;;;;;11.05;3.55;;;;;;;20.23;39.14;94913.91;4161362;28;20199;-49
2022/05/21 07:41:48;;;;;;;8.65;3.00;;;;;;;20.32;38.73;94904.63;4163099;28;20053;-53
2022/05/21 07:43:50;;;;;;;9.75;3.22;;;;;;;20.53;39.00;94908.78;4176410;28;20041;-50
2022/05/21 07:45:51;;;;;;;7.13;3.08;;;;;;;20.76;38.88;94894.94;4176608;28;20049;-58
2022/05/21 07:47:53;;;;;;;9.27;3.38;;;;;;;20.98;38.30;94900.69;4175967;28;20099;-54
2022/05/21 07:49:56;;;;;;;8.82;3.20;;;;;;;21.08;37.48;94900.19;4176719;28;20060;-54
2022/05/21 07:51:59;;;;;;;9.13;3.70;;;;;;;21.02;37.79;94901.06;4176111;28;20053;-51
2022/05/21 07:54:00;;;;;;;9.43;3.45;;;;;;;21.04;37.83;94899.00;4175579;28;20071;-58
2022/05/21 07:56:03;;;;;;;7.07;3.50;;;;;;;21.12;37.85;94904.03;4176391;28;20496;-53
2022/05/21 07:58:04;;;;;;;7.90;3.63;;;;;;;21.12;36.70;94903.22;4176611;28;20134;-53
2022/05/21 08:00:08;;;;;;;7.43;4.10;;;;;;;20.92;36.88;94890.09;4176321;28;20467;-55
2022/05/21 08:02:12;;;;;;;7.38;3.22;;;;;;;20.96;37.07;94894.75;4175923;28;20082;-57
2022/05/21 08:04:17;;;;;;;11.75;3.85;;;;;;;21.02;36.78;94893.09;4167023;28;20418;-55
2022/05/21 08:06:18;;;;;;;6.90;3.50;;;;;;;21.01;37.01;94886.13;4162250;28;20526;-49
2022/05/21 08:08:20;;;;;;;6.15;3.20;;;;;;;20.94;36.88;94880.03;4158407;28;20062;-51
2022/05/21 08:10:23;;;;;;;8.15;3.20;;;;;;;20.95;36.89;94873.66;4160122;28;20072;-54
2022/05/21 08:12:25;;;;;;;7.85;3.03;;;;;;;21.03;36.55;94873.41;4159444;28;20057;-54
2022/05/21 08:14:32;;;;;;;6.28;2.78;;;;;;;21.25;36.17;94865.78;4167655;28;20158;-54
2022/05/21 08:16:33;;;;;;;8.25;3.30;;;;;;;21.37;35.87;94865.88;4175866;28;20057;-53
2022/05/21 08:18:35;;;;;;;6.05;3.10;;;;;;;21.56;35.32;94856.06;4175999;28;20114;-55
2022/05/21 08:20:38;;;;;;;6.97;3.40;;;;;;;21.75;35.33;94857.66;4176242;28;20419;-55
2022/05/21 08:27:21;;;;;;;14.40;3.67;;;;;;;22.37;35.13;94853.97;4175891;28;20064;-54
2022/05/21 08:29:28;;;;;;;9.82;3.40;;;;;;;22.36;35.02;94857.69;4176063;28;20060;-55
2022/05/21 08:31:30;;;;;;;8.55;3.42;;;;;;;22.55;35.01;94853.88;4175704;28;20052;-58
2022/05/21 08:33:32;;;;;;;12.77;3.50;;;;;;;22.57;34.72;94851.00;4175498;28;20045;-55
2022/05/21 08:35:35;;;;;;;7.47;3.60;;;;;;;22.16;35.00;94849.94;4175899;28;20080;-53
2022/05/21 08:37:36;;;;;;;8.05;3.20;;;;;;;22.28;35.40;94848.97;4174365;28;20049;-53
2022/05/21 08:39:39;;;;;;;8.93;3.78;;;;;;;22.40;35.18;94854.31;4161929;28;20548;-58
2022/05/21 08:41:47;;;;;;;8.68;3.40;;;;;;;22.37;35.72;94852.13;4158780;28;20049;-53
2022/05/21 08:43:54;;;;;;;9.05;2.92;;;;;;;22.43;35.66;94855.72;4157854;28;20057;-55
2022/05/21 08:46:02;;;;;;;9.55;3.45;;;;;;;22.52;35.07;94849.03;4173982;28;20485;-54
2022/05/21 08:48:04;;;;;;;16.13;3.55;;;;;;;22.69;35.40;94847.31;4175621;28;20057;-51
2022/05/21 08:50:10;;;;;;;10.45;3.30;;;;;;;22.78;35.00;94844.25;4176041;28;20064;-52
2022/05/21 08:52:30;;;;;;;10.38;4.47;;;;;;;22.81;34.46;94847.28;4156438;28;20217;-54
2022/05/21 08:54:39;;;;;;;8.45;2.90;;;;;;;22.90;35.16;94840.56;4175692;28;20045;-52
2022/05/21 08:56:41;;;;;;;8.38;2.95;;;;;;;22.99;34.84;94838.34;4174252;28;20090;-54
2022/05/21 08:58:48;;;;;;;11.70;3.42;;;;;;;23.19;34.27;94838.03;4175886;28;20060;-54
2022/05/21 09:00:50;;;;;;;8.93;3.65;;;;;;;23.31;34.12;94838.00;4175692;28;20118;-55
2022/05/21 09:02:54;;;;;;;8.43;2.90;;;;;;;23.38;33.84;94836.03;4175410;28;20120;-52
2022/05/21 09:04:56;;;;;;;7.28;3.45;;;;;;;23.57;33.47;94839.34;4164211;28;20056;-53
2022/05/21 09:07:03;;;;;;;6.93;3.33;;;;;;;23.69;33.14;94840.13;4163607;28;20469;-51
2022/05/21 09:09:28;;;;;;;12.43;3.20;;;;;;;23.80;32.96;94837.69;4157780;28;20053;-51
2022/05/21 09:11:50;;;;;;;8.13;3.08;;;;;;;24.06;32.76;94831.75;4157862;28;20049;-56
2022/05/21 09:14:02;;;;;;;13.07;3.47;;;;;;;24.24;32.27;94832.59;4159343;28;20103;-54
2022/05/21 09:18:25;;;;;;;9.00;3.08;;;;;;;24.46;31.60;94825.50;4175615;28;20339;-52
2022/05/21 09:20:30;;;;;;;9.10;3.83;;;;;;;24.56;31.54;94827.53;4175671;28;20079;-56
2022/05/21 09:22:32;;;;;;;9.38;3.03;;;;;;;24.64;31.14;94832.50;4172773;28;20155;-54
2022/05/21 09:24:55;;;;;;;6.80;2.80;;;;;;;24.34;30.78;94830.09;4175746;28;20060;-50
2022/05/21 09:26:57;;;;;;;4.20;2.42;;;;;;;24.43;30.90;94835.88;4175346;28;20060;-54
2022/05/21 09:29:20;;;;;;;6.05;2.70;;;;;;;24.57;30.18;94823.81;4170942;28;20045;-52
2022/05/21 09:31:29;;;;;;;8.05;2.60;;;;;;;24.75;29.13;94822.75;4158924;28;20057;-55
2022/05/21 09:33:37;;;;;;;4.40;2.67;;;;;;;24.92;29.14;94825.41;4158267;28;20041;-53
2022/05/21 09:35:55;;;;;;;11.07;3.28;;;;;;;25.04;29.48;94814.63;4158883;28;20350;-50
2022/05/21 09:38:11;;;;;;;6.85;2.40;;;;;;;25.21;28.72;94809.22;4157830;28;20054;-57
2022/05/21 09:40:29;;;;;;;3.92;2.13;;;;;;;25.43;27.87;94803.91;4159121;28;20135;-54
2022/05/21 09:47:25;;;;;;;5.85;1.95;;;;;;;25.17;27.99;94814.25;4175034;28;20065;-54
2022/05/21 09:49:31;;;;;;;4.85;1.98;;;;;;;25.03;27.77;94810.28;4175409;28;20103;-55
2022/05/21 09:51:33;;;;;;;4.85;2.20;;;;;;;25.19;28.19;94812.16;4175290;28;20061;-53
2022/05/21 09:53:38;;;;;;;6.90;2.03;;;;;;;25.28;27.68;94805.31;4174709;28;20057;-53
2022/05/21 09:55:40;;;;;;;5.70;1.60;;;;;;;25.11;27.13;94810.69;4178202;28;20139;-55
2022/05/21 09:57:44;;;;;;;3.55;1.90;;;;;;;25.26;27.53;94801.25;4178051;28;20049;-53
2022/05/21 10:00:15;;;;;;;2.95;1.60;;;;;;;25.27;27.24;94798.31;4178338;28;20110;-56
2022/05/21 10:02:22;;;;;;;6.18;1.75;;;;;;;25.26;27.76;94804.75;4176432;28;20053;-55
2022/05/21 10:04:43;;;;;;;6.47;2.50;;;;;;;25.30;28.08;94792.47;4177961;28;20425;-54
2022/05/21 10:06:51;;;;;;;3.92;2.10;;;;;;;25.23;28.60;94785.66;4160273;28;20041;-54